Friday, February 23, 2018, 1:44 PM EST
Back to Local

KBHB, Bar Harbor, Hancock County-bar Harbor Airport

Location: Ellsworth, ME, United States Lat: 44.45
Local Time: 1:44 PM EST (18:44 GMT) Lon: -68.367
Time Zone: US/Eastern Elev: 82 ft

Show me the last for .
Show Decoded

2018-02-23 12:56 METAR KBHB 231756Z AUTO 09007KT 10SM CLR M02/M08 A3062 RMK AO2 SLP373 6////
                 T10171083 11017 21056 58036 FZRANO PNO $ =
2018-02-23 11:56 METAR KBHB 231656Z AUTO 09007KT 10SM CLR M02/M10 A3066 RMK AO2 SLP387 T10221100
                 FZRANO PNO $ =
2018-02-23 10:56 METAR KBHB 231556Z AUTO 11005KT 10SM CLR M03/M12 A3070 RMK AO2 SLP401 T10281117
                 FZRANO PNO $ =
2018-02-23 09:56 METAR KBHB 231456Z AUTO VRB06KT 10SM CLR M03/M12 A3073 RMK AO2 SLP410 6////
                 T10331117 58013 FZRANO PNO $ =
2018-02-23 08:56 METAR KBHB 231356Z AUTO 10008KT 10SM CLR M04/M12 A3075 RMK AO2 SLP416 T10441122
                 FZRANO PNO $ =
2018-02-23 07:56 METAR KBHB 231256Z AUTO 07007KT 10SM CLR M05/M13 A3076 RMK AO2 SLP421 T10501128
                 FZRANO PNO $ =
2018-02-23 06:56 METAR KBHB 231156Z AUTO 06007KT 10SM CLR M06/M13 A3076 RMK AO2 SLP422 6////
                 7//// T10561128 11039 21072 51010 FZRANO PNO $ =
2018-02-23 05:56 METAR KBHB 231056Z AUTO 06005KT 10SM CLR M07/M11 A3075 RMK AO2 SLP418 T10671111
                 FZRANO PNO $ =
2018-02-23 04:56 METAR KBHB 230956Z AUTO 01003KT 10SM CLR M06/M11 A3075 RMK AO2 SLP418 T10611106
                 FZRANO PNO $ =
2018-02-23 03:56 METAR KBHB 230856Z AUTO 02004KT 10SM CLR M06/M11 A3073 RMK AO2 SLP412 6////
                 T10561106 51007 FZRANO PNO $ =
2018-02-23 02:56 METAR KBHB 230756Z AUTO 36004KT 10SM CLR M05/M11 A3072 RMK AO2 SLP407 T10501106
                 FZRANO PNO $ =
2018-02-23 01:56 METAR KBHB 230656Z AUTO 00000KT 10SM CLR M04/M11 A3073 RMK AO2 SLP412 T10441106
                 FZRANO PNO $ =
2018-02-23 00:56 METAR KBHB 230556Z AUTO 35004KT 10SM CLR M04/M10 A3071 RMK AO2 SLP405 6////
                 T10391100 11011 21039 53009 FZRANO PNO $ =
2018-02-22 23:56 METAR KBHB 230456Z AUTO 36006KT 10SM CLR M03/M11 A3070 RMK AO2 SLP400 T10331106
                 FZRANO PNO $ =
2018-02-22 22:56 METAR KBHB 230356Z AUTO 35004KT 10SM CLR M03/M11 A3069 RMK AO2 SLP398 T10281111
                 FZRANO PNO $ =
2018-02-22 21:56 METAR KBHB 230256Z AUTO 34005KT 10SM CLR M02/M11 A3069 RMK AO2 SLP395 6////
                 T10221106 53003 FZRANO PNO $ =
2018-02-22 20:56 METAR KBHB 230156Z AUTO 34005KT 10SM CLR M02/M10 A3067 RMK AO2 SLP391 T10221100
                 FZRANO PNO $ =
2018-02-22 19:56 METAR KBHB 230056Z AUTO 32003KT 8SM CLR M02/M09 A3066 RMK AO2 SLP386 T10171094
                 FZRANO PNO $ =
2018-02-22 18:56 METAR KBHB 222356Z AUTO 32004KT 10SM CLR M01/M09 A3068 RMK AO2 SLP392 6////
                 T10111094 10006 21011 401221011 53017 FZRANO PNO $ =
2018-02-22 17:56 METAR KBHB 222256Z AUTO 00000KT 10SM CLR M01/M09 A3065 RMK AO2 SLP385 T10061094
                 FZRANO PNO $ =
2018-02-22 16:56 METAR KBHB 222156Z AUTO 33003KT 10SM OVC110 00/M09 A3065 RMK AO2 SLP382
                 T00001094 FZRANO PNO $ =
2018-02-22 15:56 METAR KBHB 222056Z AUTO 35003KT 10SM BKN120 00/M10 A3063 RMK AO2 SLP375 6////
                 T00001100 55005 FZRANO PNO $ =
2018-02-22 14:56 METAR KBHB 221956Z AUTO 01007KT 10SM OVC110 00/M11 A3062 RMK AO2 SLP372
                 T00001106 FZRANO PNO $ =
2018-02-22 13:56 METAR KBHB 221856Z AUTO 36006KT 10SM FEW120 00/M11 A3062 RMK AO2 SLP372
                 T00001111 FZRANO PNO $ =

Support USWX by starting your Amazon purchase here.